Latest Weather Observations for Charles Point

IDD60901

Issued at 8:51 am CST Tuesday 3 May 2016 (issued every 10 minutes, with the page automatically refreshed every 10 minutes)

About weather observations | Map of Darwin area stations | Latest observations for Darwin area | Other Formats
Station Details ID: 014031 Name: CHARLES POINT Lat: -12.39 Lon: 130.63 Height: 14.0 m
Data from the previous 72 hours. | See also: Recent months for locations in Northern Territory
Date/Time
CST
Tmp

°C
App
Tmp
°C
Dew
Point
°C
Rel
Hum
%
Delta-T

°C
Wind Press
QNH
hPa
Press
MSL
hPa
Rain
since
9 am
mm
Dir
 
Spd
km/h
Gust
km/h
Spd
kts
Gust
kts
03/08:30am 28.4 32.9 24.0 77 3.0 ESE 7 17 4 9 1011.9 1011.8 10.2
03/08:00am 27.4 31.1 23.2 78 2.9 SE 9 20 5 11 1012.0 1011.9 10.2
03/07:30am 26.3 29.6 23.2 83 2.1 SE 11 15 6 8 1011.7 1011.6 10.2
03/07:00am 25.7 29.4 23.2 86 1.7 SE 9 15 5 8 1011.7 1011.6 10.2
03/06:30am 25.5 29.4 23.6 89 1.3 ESE 9 17 5 9 1011.3 1011.2 10.2
03/06:00am 25.4 29.1 23.3 88 1.4 SE 9 17 5 9 1010.7 1010.6 10.2
03/05:30am 25.1 28.6 22.8 87 1.6 SE 9 13 5 7 1010.5 1010.4 10.2
03/05:00am 25.0 28.8 22.7 87 1.5 ESE 7 13 4 7 1010.3 1010.2 10.2
03/04:30am 25.1 29.0 23.0 88 1.4 SE 7 11 4 6 1010.3 1010.2 10.2
03/04:00am 25.1 28.9 22.8 87 1.6 SSE 7 13 4 7 1010.2 1010.1 10.2
03/03:30am 25.5 29.4 23.0 86 1.7 SSE 7 13 4 7 1010.2 1010.1 10.2
03/03:00am 25.9 30.3 23.8 88 1.4 SSE 7 11 4 6 1010.7 1010.6 10.2
03/02:30am 26.4 30.8 24.4 89 1.4 SSE 9 13 5 7 1010.8 1010.7 10.2
03/02:00am 27.1 31.3 24.7 87 1.7 SSE 11 15 6 8 1011.0 1010.9 10.2
03/01:30am 28.0 33.1 24.6 82 2.4 SE 6 7 3 4 1011.3 1011.2 10.2
03/01:00am 28.4 33.3 24.6 80 2.6 ESE 7 11 4 6 1012.0 1011.9 10.2
03/12:30am 28.6 33.9 25.0 81 2.5 ESE 6 11 3 6 1012.4 1012.3 10.2
03/12:00am 28.9 34.2 24.9 79 2.8 E 6 11 3 6 1012.6 1012.5 10.2
 
Date/Time
CST
Tmp

°C
App
Tmp
°C
Dew
Point
°C
Rel
Hum
%
Delta-T

°C
Wind Press
QNH
hPa
Press
MSL
hPa
Rain
since
9 am
mm
Dir
 
Spd
km/h
Gust
km/h
Spd
kts
Gust
kts
02/11:30pm 29.0 34.0 24.8 78 2.9 ENE 7 13 4 7 1012.6 1012.5 10.2
02/11:00pm 28.9 33.6 24.9 79 2.8 ENE 9 17 5 9 1012.5 1012.4 10.2
02/10:30pm 29.0 34.1 25.0 79 2.8 ENE 7 13 4 7 1012.4 1012.3 10.2
02/10:00pm 29.1 33.9 25.1 79 2.8 NE 9 15 5 8 1012.5 1012.4 10.2
02/09:30pm 28.7 34.0 24.9 80 2.7 ENE 6 9 3 5 1012.9 1012.8 10.2
02/09:00pm 29.0 34.3 25.2 80 2.7 NE 7 13 4 7 1012.8 1012.7 10.2
02/08:30pm 28.8 33.9 25.0 80 2.7 ENE 7 11 4 6 1012.5 1012.4 10.2
02/08:00pm 28.9 34.0 24.9 79 2.8 NE 7 13 4 7 1011.8 1011.7 10.2
02/07:30pm 29.2 33.0 24.7 77 3.1 NE 13 20 7 11 1011.7 1011.6 10.2
02/07:00pm 29.0 34.0 24.8 78 2.9 ENE 7 15 4 8 1011.5 1011.4 10.2
02/06:30pm 29.4 33.3 24.9 77 3.2 NE 13 20 7 11 1010.9 1010.8 10.2
02/06:00pm 29.4 33.5 24.5 75 3.4 ENE 11 20 6 11 1010.3 1010.2 10.2
02/05:30pm 29.4 33.5 24.5 75 3.4 ENE 11 20 6 11 1009.9 1009.8 10.2
02/05:00pm 29.8 34.6 25.1 76 3.3 ENE 9 17 5 9 1009.8 1009.7 10.2
02/04:30pm 29.8 34.0 24.7 74 3.6 E 11 20 6 11 1009.6 1009.5 10.2
02/04:00pm 29.9 34.3 25.0 75 3.4 E 11 20 6 11 1009.2 1009.1 10.2
02/03:30pm 29.9 33.9 25.0 75 3.4 ENE 13 24 7 13 1009.1 1009.0 10.2
02/03:00pm 29.6 33.6 25.1 77 3.2 ENE 13 26 7 14 1009.3 1009.2 10.0
02/02:30pm 28.9 31.6 24.7 78 2.9 ENE 19 28 10 15 1009.7 1009.6 10.0
02/02:00pm 27.3 31.6 24.9 87 1.7 E 11 26 6 14 1010.2 1010.1 10.0
02/01:30pm 26.4 31.1 25.0 92 1.0 ESE 9 19 5 10 1010.9 1010.8 9.6
02/01:00pm 26.8 29.3 25.4 92 1.0 NNE 22 39 12 21 1011.4 1011.3 1.6
02/12:39pm 28.0 30.4 24.6 82 2.4 NE 20 41 11 22 1011.3 1011.2 0.0
02/12:30pm 30.3 35.4 24.7 72 3.9 E 6 13 3 7 1011.2 1011.1 0.0
02/12:00pm 30.8 35.0 24.7 70 4.3 ESE 11 17 6 9 1011.4 1011.3 0.0
02/11:30am 31.5 35.4 24.9 68 4.6 E 13 19 7 10 1011.7 1011.6 0.0
02/11:00am 31.2 34.9 24.6 68 4.6 E 13 24 7 13 1012.1 1012.0 0.0
02/10:30am 30.9 35.0 24.5 68 4.5 E 11 19 6 10 1012.3 1012.2 0.0
02/10:00am 30.3 33.9 24.4 70 4.1 ESE 13 20 7 11 1012.2 1012.1 0.0
02/09:30am 29.4 32.8 24.0 72 3.7 ESE 13 24 7 13 1012.2 1012.1 0.0
02/09:00am 29.3 33.2 24.2 74 3.5 ESE 11 20 6 11 1012.0 1011.9 0.2
02/08:30am 29.0 33.3 24.3 76 3.3 ESE 9 19 5 10 1011.7 1011.6 0.2
02/08:00am 27.5 31.6 23.9 81 2.5 SE 9 15 5 8 1011.6 1011.5 0.2
02/07:30am 26.9 31.3 23.8 83 2.1 SSE 7 11 4 6 1011.1 1011.0 0.2
02/07:00am 27.2 31.4 24.1 83 2.1 ESE 9 20 5 11 1010.9 1010.8 0.2
02/06:30am 27.0 31.7 24.3 85 1.9 SE 7 13 4 7 1010.7 1010.6 0.2
02/06:00am 27.6 32.1 24.6 84 2.1 ESE 9 15 5 8 1010.3 1010.2 0.2
02/05:30am 27.3 31.8 24.6 85 1.9 ESE 9 15 5 8 1010.1 1010.0 0.2
02/05:00am 27.4 31.6 24.1 82 2.3 ESE 9 19 5 10 1009.9 1009.8 0.2
02/04:30am 27.7 31.6 24.3 82 2.4 E 11 17 6 9 1009.6 1009.5 0.2
02/04:00am 27.8 31.9 24.0 80 2.6 E 9 19 5 10 1009.6 1009.5 0.2
02/03:30am 27.7 31.9 23.5 78 2.9 E 7 13 4 7 1009.7 1009.6 0.2
02/03:00am 27.5 31.0 23.5 79 2.7 ESE 11 17 6 9 1009.7 1009.6 0.2
02/02:30am 26.9 31.1 23.4 81 2.4 SE 7 13 4 7 1010.0 1009.9 0.2
02/02:00am 27.0 30.8 23.5 81 2.4 SE 9 17 5 9 1010.1 1010.0 0.2
02/01:30am 26.8 30.6 23.5 82 2.3 SE 9 13 5 7 1010.3 1010.2 0.2
02/01:00am 26.8 31.0 23.5 82 2.3 SE 7 13 4 7 1010.7 1010.6 0.2
02/12:30am 26.9 31.1 23.4 81 2.4 SE 7 13 4 7 1010.8 1010.7 0.2
02/12:00am 27.1 31.2 23.3 80 2.6 SE 7 13 4 7 1011.0 1010.9 0.2
 
Date/Time
CST
Tmp

°C
App
Tmp
°C
Dew
Point
°C
Rel
Hum
%
Delta-T

°C
Wind Press
QNH
hPa
Press
MSL
hPa
Rain
since
9 am
mm
Dir
 
Spd
km/h
Gust
km/h
Spd
kts
Gust
kts
01/11:30pm 27.1 31.2 23.3 80 2.6 SE 7 13 4 7 1011.7 1011.6 0.2
01/11:00pm 27.4 30.6 23.0 77 3.0 SE 11 17 6 9 1012.3 1012.2 0.2
01/10:30pm 27.9 30.6 23.5 77 3.0 ESE 15 22 8 12 1012.2 1012.1 0.2
01/10:00pm 28.5 32.0 24.9 81 2.5 E 15 30 8 16 1011.7 1011.6 0.2
01/09:30pm 29.9 33.7 25.9 79 2.8 NNE 17 20 9 11 1011.6 1011.5 0.0
01/09:00pm 30.3 34.6 24.9 73 3.8 NNE 11 17 6 9 1011.7 1011.6 0.0
01/08:30pm 30.1 34.7 25.4 76 3.3 NE 11 17 6 9 1010.9 1010.8 0.0
01/08:00pm 30.1 34.4 24.9 73 3.7 NE 11 17 6 9 1010.5 1010.4 0.0
01/07:30pm 30.2 33.8 25.0 73 3.7 NE 15 19 8 10 1010.2 1010.1 0.0
01/07:00pm 30.2 34.8 25.3 75 3.5 NE 11 17 6 9 1010.3 1010.2 0.0
01/06:30pm 30.3 35.0 24.9 73 3.8 NE 9 13 5 7 1010.0 1009.9 0.0
01/06:00pm 30.6 35.0 25.0 72 3.9 NE 11 17 6 9 1009.6 1009.5 0.0
01/05:30pm 30.6 34.8 24.7 71 4.1 NE 11 15 6 8 1008.8 1008.7 0.0
01/05:00pm 30.7 33.9 24.4 69 4.4 NE 15 24 8 13 1008.7 1008.6 0.0
01/04:30pm 31.2 34.2 24.6 68 4.6 NE 17 22 9 12 1008.9 1008.8 0.0
01/04:00pm 31.3 34.5 23.7 64 5.3 N 13 19 7 10 1008.9 1008.8 0.0
01/03:30pm 31.4 36.2 24.5 67 4.8 N 7 11 4 6 1008.9 1008.8 0.0
01/03:00pm 32.0 37.0 24.8 65 5.1 N 7 11 4 6 1009.2 1009.1 0.0
01/02:30pm 32.1 37.0 24.7 65 5.2 N 7 11 4 6 1009.6 1009.5 0.0
01/02:00pm 32.3 36.8 24.6 64 5.4 NNE 9 13 5 7 1009.9 1009.8 0.0
01/01:30pm 32.0 36.3 24.3 63 5.4 NE 9 13 5 7 1010.0 1009.9 0.0
01/01:00pm 32.5 37.2 24.3 62 5.7 ENE 7 15 4 8 1010.4 1010.3 0.0
01/12:30pm 32.3 37.1 24.1 62 5.7 NE 6 9 3 5 1011.0 1010.9 0.0
01/12:00pm 33.1 38.3 25.1 63 5.7 ENE 7 11 4 6 1011.5 1011.4 0.0
01/11:30am 32.2 37.0 24.5 64 5.4 ENE 7 11 4 6 1011.8 1011.7 0.0
01/11:00am 31.9 36.8 24.7 65 5.1 ENE 7 13 4 7 1011.8 1011.7 0.0
01/10:30am 31.1 35.5 24.5 68 4.6 E 9 13 5 7 1012.0 1011.9 0.0
01/10:00am 30.0 34.7 24.9 74 3.6 ESE 9 15 5 8 1012.1 1012.0 0.0
01/09:30am 29.9 36.2 26.5 82 2.4 ESE 6 11 3 6 1012.3 1012.2 0.0
01/09:00am 28.1 34.5 26.1 89 1.4 SSE 4 6 2 3 1012.3 1012.2 5.4
01/08:30am 27.1 32.7 25.5 91 1.1 SSE 6 9 3 5 1012.3 1012.2 5.4
01/08:00am 26.6 32.5 25.4 93 0.8 SE 4 6 2 3 1012.1 1012.0 5.4
01/07:30am 26.3 31.7 25.1 93 0.8 SSE 6 7 3 4 1011.5 1011.4 5.4
01/07:00am 26.2 31.6 25.2 94 0.7 SE 6 7 3 4 1011.3 1011.2 5.4
01/06:30am 25.9 31.5 24.9 94 0.7 SE 4 7 2 4 1011.0 1010.9 5.4
01/06:00am 25.5 31.3 24.5 94 0.7 ESE 2 4 1 2 1010.8 1010.7 5.4
01/05:30am 25.6 30.7 24.7 95 0.6 S 6 9 3 5 1010.5 1010.4 5.4
01/05:00am 25.7 32.0 24.8 95 0.6 CALM 0 0 0 0 1011.0 1010.9 5.0
01/04:30am 25.3 31.3 24.3 94 0.7 CALM 0 0 0 0 1010.9 1010.8 4.2
01/04:00am 25.1 29.8 23.9 93 0.8 ESE 6 13 3 7 1011.1 1011.0 3.4
01/03:30am 24.9 28.0 23.5 92 1.0 ESE 13 24 7 13 1010.6 1010.5 3.0
01/03:00am 26.2 28.3 23.1 83 2.1 ESE 17 30 9 16 1010.7 1010.6 0.0
01/02:30am 27.4 32.3 24.7 85 1.9 SSE 7 9 4 5 1010.4 1010.3 0.0
01/02:00am 27.6 33.1 24.6 84 2.1 SSE 4 6 2 3 1010.5 1010.4 0.0
01/01:30am 27.7 32.7 24.5 83 2.2 S 6 7 3 4 1010.7 1010.6 0.0
01/01:00am 27.3 32.4 24.6 85 1.9 SW 6 6 3 3 1010.6 1010.5 0.0
01/12:30am 27.3 32.8 24.7 86 1.8 SW 4 4 2 2 1010.9 1010.8 0.0
01/12:00am 27.6 32.8 24.2 82 2.4 SW 4 6 2 3 1011.1 1011.0 0.0
 
Date/Time
CST
Tmp

°C
App
Tmp
°C
Dew
Point
°C
Rel
Hum
%
Delta-T

°C
Wind Press
QNH
hPa
Press
MSL
hPa
Rain
since
9 am
mm
Dir
 
Spd
km/h
Gust
km/h
Spd
kts
Gust
kts
30/11:30pm 27.5 33.0 24.6 84 2.0 SW 4 6 2 3 1011.1 1011.0 0.0
30/11:00pm 27.7 33.1 24.5 83 2.2 WSW 4 6 2 3 1011.0 1010.9 0.0
30/10:30pm 28.1 33.4 24.3 80 2.6 SW 4 6 2 3 1011.1 1011.0 0.0
30/10:00pm 28.0 32.7 24.0 79 2.8 WSW 6 9 3 5 1011.1 1011.0 0.0
30/09:30pm 27.9 33.0 24.1 80 2.6 WSW 4 7 2 4 1011.1 1011.0 0.0
30/09:00pm 28.2 33.5 24.4 80 2.6 SW 4 6 2 3 1011.1 1011.0 0.0
30/08:30pm 28.6 33.9 24.4 78 2.9 SW 4 7 2 4 1010.8 1010.7 0.0
30/08:00pm 28.8 34.3 24.6 78 2.9 WSW 4 7 2 4 1010.4 1010.3 0.0
30/07:30pm 29.1 34.0 24.4 76 3.3 W 6 9 3 5 1010.3 1010.2 0.0
30/07:00pm 29.2 34.2 24.5 76 3.3 W 6 9 3 5 1010.0 1009.9 0.0
30/06:30pm 29.9 34.8 24.3 72 3.9 W 6 9 3 5 1009.7 1009.6 0.0
30/06:00pm 31.1 36.1 24.5 68 4.6 W 6 11 3 6 1009.3 1009.2 0.0
30/05:30pm 32.2 37.0 24.5 64 5.4 W 7 13 4 7 1008.9 1008.8 0.0
30/05:00pm 32.7 37.0 24.2 61 5.9 WNW 9 13 5 7 1008.7 1008.6 0.0
30/04:30pm 32.8 36.7 24.3 61 6.0 WNW 11 17 6 9 1008.5 1008.4 0.0
30/04:00pm 33.0 36.9 24.2 60 6.2 WNW 11 17 6 9 1008.6 1008.5 0.0
30/03:30pm 33.0 37.3 24.2 60 6.2 NW 9 13 5 7 1008.8 1008.7 0.0
30/03:00pm 32.4 36.7 24.2 62 5.7 NW 9 13 5 7 1009.0 1008.9 0.0
30/02:30pm 32.6 37.2 24.1 61 5.9 NNW 7 9 4 5 1009.5 1009.4 0.0
30/02:00pm 32.8 37.3 24.6 62 5.8 NNW 9 11 5 6 1009.9 1009.8 0.0
30/01:30pm 32.2 36.4 24.8 65 5.2 N 11 15 6 8 1010.4 1010.3 0.0
30/01:00pm 32.1 36.7 24.7 65 5.2 N 9 13 5 7 1011.0 1010.9 0.0
30/12:30pm 33.1 38.0 24.3 60 6.2 NNE 6 9 3 5 1011.7 1011.6 0.0
30/12:00pm 32.7 37.4 23.9 60 6.1 NE 6 7 3 4 1012.3 1012.2 0.0
30/11:30am 31.8 36.1 23.6 62 5.7 ENE 7 11 4 6 1012.7 1012.6 0.0
30/11:00am 33.3 38.2 24.7 60 6.1 ENE 7 11 4 6 1013.0 1012.9 0.0
30/10:30am 32.4 37.7 25.0 65 5.2 ENE 6 9 3 5 1013.2 1013.1 0.0
30/10:00am 31.4 36.1 24.0 65 5.2 SSE 6 11 3 6 1013.3 1013.2 0.0
30/09:30am 30.4 35.5 25.0 73 3.8 S 7 9 4 5 1013.1 1013.0 0.0
30/09:00am 28.9 34.4 25.3 81 2.5 SSE 6 9 3 5 1013.2 1013.1 -

Latest Capital City Observations: Canberra | Sydney | Melbourne | Brisbane | Adelaide | Perth | Hobart | Darwin

Other Formats:

Comma delimited format used in spreadsheet applications
http://www.bom.gov.au/fwo/IDD60901/IDD60901.99510.axf

JavaScript Object Notation format (JSON) in row-major order
http://www.bom.gov.au/fwo/IDD60901/IDD60901.99510.json